Time;durP1;ratioP1;P1;durP2;ratioP2;P2;SDS_P1;SDS_P2;PMS_P1;PMS_P2;Temp;Humidity;BMP_temperature;BMP_pressure;BME280_temperature;BME280_humidity;BME280_pressure;Samples;Min_cycle;Max_cycle;Signal;HPM_P1;HPM_P2
2023/04/08 00:00:16;;;;;;;0.20;0.20;;;7.80;99.90;;;7.84;100.00;100772.66;5067367;28;20785;-74
2023/04/08 00:02:44;;;;;;;0.10;0.10;;;;;;;7.84;100.00;100781.44;5068386;28;20272;-74
2023/04/08 00:05:12;;;;;;;0.20;0.20;;;;;;;7.80;100.00;100776.03;5065711;28;20720;-74
2023/04/08 00:07:39;;;;;;;0.17;0.17;;;;;;;7.77;100.00;100783.84;5068132;28;20226;-74
2023/04/08 00:10:07;;;;;;;0.20;0.20;;;;;;;7.78;100.00;100793.53;5067827;28;20245;-74
2023/04/08 00:12:35;;;;;;;0.10;0.10;;;;;;;7.86;100.00;100803.44;5068002;28;20276;-74
2023/04/08 00:15:02;;;;;;;0.20;0.20;;;;;;;7.82;100.00;100803.31;5059164;28;20646;-74
2023/04/08 00:17:29;;;;;;;0.20;0.20;;;;;;;7.83;100.00;100813.88;5068482;28;20306;-74
2023/04/08 00:19:57;;;;;;;0.20;0.20;;;;;;;7.90;100.00;100818.47;5065345;28;20218;-74
2023/04/08 00:22:25;;;;;;;0.40;0.40;;;;;;;7.91;100.00;100830.78;5051837;28;20321;-74
2023/04/08 00:24:52;;;;;;;0.25;0.25;;;;;;;7.90;100.00;100826.38;5068856;28;20686;-74
2023/04/08 00:27:19;;;;;;;0.25;0.25;;;;;;;7.93;100.00;100826.44;5067819;28;20260;-74
2023/04/08 00:29:47;;;;;;;0.50;0.50;;;;;;;7.92;100.00;100836.94;5063361;28;20279;-74
2023/04/08 00:32:14;;;;;;;0.20;0.20;;;;;;;7.95;100.00;100843.16;5041291;28;20287;-74
2023/04/08 00:34:42;;;;;;;0.10;0.10;;;;;;;8.01;100.00;100842.44;5063147;28;20229;-74
2023/04/08 00:37:10;;;;;;;0.20;0.20;;;;;;;8.00;100.00;100841.53;5027931;28;20241;-74
2023/04/08 00:39:37;;;;;;;0.20;0.20;;;;;;;8.00;100.00;100849.44;5068604;28;20271;-74
2023/04/08 00:42:05;;;;;;;0.20;0.20;;;;;;;8.01;100.00;100855.59;5068762;28;20233;-74
2023/04/08 00:44:32;;;;;;;0.15;0.15;;;;;;;7.99;100.00;100855.56;5062298;28;20280;-73
2023/04/08 00:47:00;;;;;;;0.10;0.10;;;;;;;8.00;100.00;100854.72;5067597;28;20298;-74
2023/04/08 00:49:27;;;;;;;0.10;0.10;;;;;;;8.00;100.00;100859.97;5047392;28;20234;-74
2023/04/08 00:51:55;;;;;;;0.20;0.20;;;;;;;7.99;100.00;100870.47;5050121;28;20690;-74
2023/04/08 00:54:22;;;;;;;0.20;0.20;;;;;;;8.02;100.00;100876.72;5049019;28;20234;-74
2023/04/08 00:56:50;;;;;;;0.10;0.10;;;;;;;8.03;100.00;100883.78;5063424;28;20298;-74
2023/04/08 00:59:17;;;;;;;0.20;0.20;;;8.00;99.90;;;8.03;100.00;100883.78;5059674;28;20316;-74
2023/04/08 01:02:22;;;;;;;0.15;0.15;;;8.00;99.90;;;8.03;100.00;100893.41;5067012;28;20265;-74
2023/04/08 01:05:11;;;;;;;0.20;0.20;;;8.00;99.90;;;8.05;100.00;100896.97;5064794;28;20234;-74
2023/04/08 01:07:49;;;;;;;0.10;0.10;;;8.00;99.90;;;8.06;100.00;100893.50;5061301;28;20299;-74
2023/04/08 01:10:28;;;;;;;0.50;0.50;;;8.00;99.90;;;8.05;100.00;100907.50;5030453;28;20271;-74
2023/04/08 01:12:58;;;;;;;0.20;0.20;;;8.00;99.90;;;8.05;100.00;100910.16;5048539;28;20271;-74
2023/04/08 01:15:27;;;;;;;0.20;0.20;;;8.00;99.90;;;8.06;100.00;100911.94;5048274;28;20237;-74
2023/04/08 01:17:56;;;;;;;0.10;0.10;;;8.00;99.90;;;8.08;100.00;100922.50;5049128;28;20242;-74
2023/04/08 01:20:25;;;;;;;0.20;0.20;;;7.90;99.90;;;8.08;100.00;100925.16;5051465;28;20613;-74
2023/04/08 01:23:21;;;;;;;0.20;0.20;;;8.00;99.90;;;8.06;100.00;100926.84;5049581;28;20316;-74
2023/04/08 01:25:55;;;;;;;0.15;0.15;;;8.00;99.90;;;8.08;100.00;100927.78;5054701;28;20241;-74
2023/04/08 01:28:27;;;;;;;0.15;0.15;;;7.90;99.90;;;8.09;100.00;100929.56;5063701;28;20720;-74
2023/04/08 01:30:58;;;;;;;0.20;0.20;;;8.00;99.90;;;8.08;100.00;100931.31;5070262;28;20229;-74
2023/04/08 01:33:27;;;;;;;0.20;0.20;;;8.10;99.90;;;8.11;100.00;100941.91;5072513;28;20245;-74
2023/04/08 01:35:56;;;;;;;0.10;0.10;;;6.30;99.90;;;8.12;100.00;100940.19;5050732;28;20229;-74
2023/04/08 01:38:27;;;;;;;0.20;0.20;;;8.00;99.90;;;8.06;100.00;100940.00;5044223;28;20237;-74
2023/04/08 01:40:56;;;;;;;0.10;0.10;;;8.00;99.90;;;8.08;100.00;100938.31;5040367;28;20225;-74
2023/04/08 01:43:24;;;;;;;0.20;0.20;;;;;;;8.06;100.00;100947.91;5061342;28;20250;-74
2023/04/08 01:45:56;;;;;;;0.77;0.77;;;8.00;99.90;;;8.11;100.00;100948.94;5039814;28;20268;-74
2023/04/08 01:48:25;;;;;;;0.20;0.20;;;;;;;8.11;100.00;100947.19;5052954;28;20237;-74
2023/04/08 01:50:52;;;;;;;0.30;0.30;;;;;;;8.13;100.00;100950.75;5051997;28;20226;-74
2023/04/08 01:53:20;;;;;;;0.20;0.20;;;;;;;8.14;100.00;100954.28;5054245;28;20316;-74
2023/04/08 01:55:52;;;;;;;0.20;0.20;;;8.00;99.90;;;8.10;100.00;100952.41;5051233;28;20644;-74
2023/04/08 01:58:20;;;;;;;0.10;0.10;;;8.10;99.90;;;8.08;100.00;100951.47;5052627;28;20240;-74
2023/04/08 02:00:50;;;;;;;0.10;0.10;;;8.00;99.90;;;8.10;100.00;100958.56;5036570;28;20651;-74
2023/04/08 02:03:20;;;;;;;0.35;0.35;;;8.10;99.90;;;8.11;100.00;100965.63;5072333;28;20257;-73
2023/04/08 02:05:48;;;;;;;0.20;0.20;;;;;;;8.10;100.00;100969.13;5054186;28;20246;-74
2023/04/08 02:08:15;;;;;;;0.10;0.10;;;;;;;8.12;100.00;100969.16;5053695;28;20253;-74
2023/04/08 02:10:42;;;;;;;0.20;0.20;;;;;;;8.10;100.00;100974.38;5052811;28;20662;-74
2023/04/08 02:13:10;;;;;;;0.10;0.10;;;;;;;8.08;100.00;100980.47;5062744;28;20295;-74
2023/04/08 02:15:42;;;;;;;0.20;0.20;;;8.00;99.90;;;8.05;100.00;100983.00;5069542;28;20256;-74
2023/04/08 02:18:15;;;;;;;0.10;0.10;;;8.00;99.90;;;8.04;100.00;100990.03;5029069;28;20313;-74
2023/04/08 02:21:14;;;;;;;0.20;0.20;;;8.00;99.90;;;8.05;100.00;101001.44;5049587;28;20269;-74
2023/04/08 02:23:45;;;;;;;0.10;0.10;;;6.50;99.90;;;8.00;100.00;100996.94;5070038;28;20262;-74
2023/04/08 02:26:14;;;;;;;0.10;0.10;;;7.90;99.90;;;8.00;100.00;100999.56;5053207;28;20295;-74
2023/04/08 02:28:42;;;;;;;0.28;0.28;;;8.00;99.90;;;7.98;100.00;101009.19;5053158;28;20282;-74
2023/04/08 02:31:14;;;;;;;0.10;0.10;;;7.90;99.90;;;7.99;100.00;101010.06;5046572;28;20291;-74
2023/04/08 02:33:43;;;;;;;0.73;0.73;;;7.90;99.90;;;7.99;100.00;101015.34;5053437;28;20309;-74
2023/04/08 02:36:11;;;;;;;0.10;0.10;;;7.90;99.90;;;7.96;100.00;101018.78;5052305;28;20652;-74
2023/04/08 02:38:39;;;;;;;0.22;0.22;;;;;;;7.97;100.00;101025.81;5053563;28;20234;-74
2023/04/08 02:41:07;;;;;;;0.52;0.52;;;;;;;7.98;100.00;101024.97;5048431;28;20221;-74
2023/04/08 02:43:34;;;;;;;0.20;0.20;;;;;;;7.96;100.00;101026.69;5070992;28;20253;-74
2023/04/08 02:46:02;;;;;;;0.10;0.10;;;;;;;7.93;100.00;101031.84;5070528;28;20241;-74
2023/04/08 02:48:30;;;;;;;0.35;0.35;;;;;;;7.92;100.00;101031.81;5053788;28;20259;-74
2023/04/08 02:50:58;;;;;;;0.20;0.20;;;;;;;7.91;100.00;101030.03;5069187;28;20290;-74
2023/04/08 02:53:25;;;;;;;0.20;0.20;;;;;;;7.90;100.00;101033.50;5071047;28;20287;-74
2023/04/08 02:55:53;;;;;;;0.10;0.10;;;;;;;7.93;100.00;101030.97;5062812;28;20227;-74
2023/04/08 02:58:20;;;;;;;0.20;0.20;;;;;;;7.93;100.00;101044.13;5068394;28;20261;-74
2023/04/08 03:00:47;;;;;;;0.20;0.20;;;;;;;7.91;100.00;101051.09;5056483;28;20261;-74
2023/04/08 03:03:15;;;;;;;0.10;0.10;;;;;;;7.88;100.00;101057.16;5039974;28;20230;-74
2023/04/08 03:05:42;;;;;;;0.65;0.65;;;;;;;7.86;100.00;101057.97;5050339;28;20234;-74
2023/04/08 03:08:10;;;;;;;0.10;0.10;;;;;;;7.88;100.00;101066.81;5060613;28;20336;-74
2023/04/08 03:10:37;;;;;;;0.10;0.10;;;7.80;99.90;;;7.87;100.00;101058.00;5048058;28;20690;-74
2023/04/08 03:13:04;;;;;;;0.20;0.20;;;;;;;7.87;100.00;101067.66;5068014;28;20271;-74
2023/04/08 03:15:32;;;;;;;0.20;0.20;;;;;;;7.84;100.00;101060.56;5070354;28;20233;-73
2023/04/08 03:17:59;;;;;;;0.20;0.20;;;;;;;7.88;100.00;101074.69;5069426;28;20262;-74
2023/04/08 03:20:26;;;;;;;0.20;0.20;;;;;;;7.90;100.00;101073.00;5060983;28;20363;-74
2023/04/08 03:22:54;;;;;;;0.20;0.20;;;;;;;7.89;100.00;101076.50;5069427;28;20720;-74
2023/04/08 03:25:21;;;;;;;0.10;0.10;;;;;;;7.86;100.00;101079.94;5066568;28;20241;-74
2023/04/08 03:27:49;;;;;;;0.10;0.10;;;;;;;7.87;100.00;101080.81;5068079;28;20311;-74
2023/04/08 03:30:17;;;;;;;0.63;0.63;;;;;;;7.87;100.00;101088.72;5056392;28;20239;-74
2023/04/08 03:32:44;;;;;;;0.10;0.10;;;;;;;7.88;100.00;101093.13;5061998;28;20287;-74
2023/04/08 03:35:12;;;;;;;0.10;0.10;;;;;;;7.86;100.00;101095.72;5069437;28;20262;-74
2023/04/08 03:37:39;;;;;;;0.10;0.10;;;;;;;7.91;100.00;101104.66;5066278;28;20261;-74
2023/04/08 03:40:08;;;;;;;0.25;0.25;;;7.50;99.90;;;7.84;100.00;101110.59;5064387;28;20230;-74
2023/04/08 03:42:35;;;;;;;0.20;0.20;;;;;;;7.83;100.00;101106.16;5057674;28;20262;-74
2023/04/08 03:45:03;;;;;;;0.10;0.10;;;;;;;7.78;100.00;101110.38;5057808;28;20226;-74
2023/04/08 03:47:30;;;;;;;0.35;0.35;;;;;;;7.79;100.00;101121.78;5069024;28;20234;-74
2023/04/08 03:49:58;;;;;;;0.20;0.20;;;;;;;7.80;100.00;101121.88;5069222;28;20233;-74
2023/04/08 03:52:25;;;;;;;0.20;0.20;;;;;;;7.81;100.00;101122.75;5069953;28;20295;-73
2023/04/08 03:54:53;;;;;;;0.30;0.30;;;;;;;7.76;100.00;101124.31;5068926;28;20314;-74
2023/04/08 03:57:20;;;;;;;0.20;0.20;;;;;;;7.75;100.00;101136.59;5069675;28;20253;-74
2023/04/08 03:59:47;;;;;;;0.10;0.10;;;;;;;7.77;100.00;101137.53;5066182;28;20269;-74
2023/04/08 04:02:15;;;;;;;0.43;0.43;;;;;;;7.78;100.00;101147.22;5065472;28;20276;-74
2023/04/08 04:04:42;;;;;;;0.10;0.10;;;;;;;7.76;100.00;101138.38;5069236;28;20225;-74
2023/04/08 04:07:09;;;;;;;0.20;0.20;;;7.80;99.90;;;7.76;100.00;101146.28;5056851;28;20236;-74
2023/04/08 04:09:36;;;;;;;0.15;0.15;;;7.80;99.90;;;7.81;100.00;101152.63;5059695;28;20265;-74
2023/04/08 04:12:04;;;;;;;0.30;0.30;;;;;;;7.82;100.00;101159.69;5059967;28;20236;-74
2023/04/08 04:14:31;;;;;;;0.20;0.20;;;;;;;7.80;100.00;101163.06;5070089;28;20241;-74
2023/04/08 04:16:59;;;;;;;0.17;0.17;;;;;;;7.78;100.00;101167.41;5068760;28;20265;-74
2023/04/08 04:19:30;;;;;;;0.22;0.22;;;7.70;99.90;;;7.76;100.00;101175.25;5069645;28;20233;-74
2023/04/08 04:21:57;;;;;;;0.20;0.20;;;;;;;7.80;100.00;101179.81;5068262;28;20233;-74
2023/04/08 04:24:25;;;;;;;0.10;0.10;;;;;;;7.79;100.00;101179.72;5064048;28;20262;-74
2023/04/08 04:26:52;;;;;;;0.20;0.20;;;;;;;7.77;100.00;101187.56;5081479;28;20594;-74
2023/04/08 04:29:20;;;;;;;0.20;0.20;;;;;;;7.79;100.00;101183.25;5062728;28;20257;-74
2023/04/08 04:31:47;;;;;;;0.30;0.30;;;;;;;7.82;100.00;101198.28;5062210;28;20241;-74
2023/04/08 04:34:16;;;;;;;0.47;0.47;;;7.80;99.90;;;7.81;100.00;101202.66;5069243;28;20249;-75
2023/04/08 04:36:43;;;;;;;0.77;0.77;;;;;;;7.82;100.00;101203.56;5069857;28;20273;-75
2023/04/08 04:39:10;;;;;;;0.20;0.20;;;;;;;7.80;100.00;101208.75;5063713;28;20230;-74
2023/04/08 04:41:39;;;;;;;0.22;0.22;;;;;;;7.81;100.00;101209.66;5059226;28;20596;-75
2023/04/08 04:44:06;;;;;;;0.77;0.47;;;7.70;99.90;;;7.78;100.00;101218.31;5042880;28;20603;-75
2023/04/08 04:46:34;;;;;;;0.10;0.10;;;7.70;99.90;;;7.76;100.00;101212.09;5045858;28;20242;-75
2023/04/08 04:49:02;;;;;;;0.10;0.10;;;;;;;7.73;100.00;101214.66;5041523;28;20312;-74
2023/04/08 04:51:32;;;;;;;0.10;0.10;;;7.70;99.90;;;7.79;100.00;101227.13;5067784;28;20237;-74
2023/04/08 04:53:59;;;;;;;0.10;0.10;;;;;;;7.80;100.00;101231.53;5056669;28;20324;-74
2023/04/08 04:56:27;;;;;;;0.10;0.10;;;;;;;7.78;100.00;101231.50;5039227;28;20264;-75
2023/04/08 04:58:55;;;;;;;0.10;0.10;;;;;;;7.77;100.00;101237.59;5060695;28;20232;-76
2023/04/08 05:01:22;;;;;;;0.20;0.20;;;;;;;7.77;100.00;101232.31;5056563;28;20536;-73
2023/04/08 05:03:50;;;;;;;0.95;0.95;;;;;;;7.82;100.00;101248.31;5061307;28;20225;-74
2023/04/08 05:06:18;;;;;;;0.10;0.10;;;;;;;7.78;100.00;101255.19;5046837;28;20324;-74
2023/04/08 05:08:45;;;;;;;0.10;0.10;;;;;;;7.74;100.00;101245.41;5064315;28;20281;-76
2023/04/08 05:11:12;;;;;;;0.10;0.10;;;;;;;7.80;100.00;101263.13;5063118;28;20284;-76
2023/04/08 05:13:40;;;;;;;0.10;0.10;;;;;;;7.87;100.00;101273.06;5068568;28;20249;-75
2023/04/08 05:16:07;;;;;;;0.20;0.20;;;;;;;7.87;100.00;101275.69;5064794;28;20313;-76
2023/04/08 05:18:35;;;;;;;0.10;0.10;;;;;;;7.86;100.00;101285.34;5070438;28;20237;-76
2023/04/08 05:21:03;;;;;;;0.22;0.22;;;;;;;7.86;100.00;101287.06;5083354;28;20321;-76
2023/04/08 05:23:30;;;;;;;0.20;0.20;;;;;;;7.87;100.00;101288.88;5082970;28;20260;-76
2023/04/08 05:25:58;;;;;;;0.20;0.20;;;;;;;7.89;100.00;101301.25;5064963;28;20262;-76
2023/04/08 05:28:26;;;;;;;1.00;1.00;;;;;;;7.82;100.00;101301.88;5071997;28;20236;-76
2023/04/08 05:30:53;;;;;;;0.20;0.20;;;;;;;7.80;100.00;101300.94;5071888;28;20257;-77
2023/04/08 05:33:21;;;;;;;0.10;0.10;;;;;;;7.81;100.00;101309.72;5071461;28;20257;-76
2023/04/08 05:35:48;;;;;;;0.10;0.10;;;;;;;7.83;100.00;101314.19;5063710;28;20250;-77
2023/04/08 05:38:16;;;;;;;0.30;0.30;;;;;;;7.84;100.00;101316.00;5064922;28;20256;-77
2023/04/08 05:40:43;;;;;;;0.10;0.10;;;;;;;7.88;100.00;101330.16;5059744;28;20304;-76
2023/04/08 05:43:10;;;;;;;0.20;0.20;;;;;;;7.89;100.00;101345.13;5066013;28;20372;-77
2023/04/08 05:45:38;;;;;;;0.20;0.20;;;;;;;7.90;100.00;101345.16;5064903;28;20236;-76
2023/04/08 05:48:05;;;;;;;0.20;0.20;;;;;;;7.93;100.00;101347.00;5060713;28;20333;-78
2023/04/08 05:50:35;;;;;;;0.20;0.20;;;7.90;99.90;;;7.94;100.00;101356.72;5042704;28;20261;-76
2023/04/08 05:53:02;;;;;;;0.10;0.10;;;;;;;7.94;100.00;101362.88;5059970;28;20771;-77
2023/04/08 05:55:30;;;;;;;0.43;0.43;;;;;;;7.96;100.00;101366.44;5071797;28;20233;-76
2023/04/08 05:57:57;;;;;;;0.43;0.43;;;;;;;7.99;100.00;101377.09;5063843;28;20234;-75
2023/04/08 06:00:25;;;;;;;0.10;0.10;;;;;;;8.01;100.00;101380.66;5059616;28;20634;-76
2023/04/08 06:02:52;;;;;;;0.20;0.20;;;;;;;8.06;100.00;101387.84;5051414;28;20233;-76
2023/04/08 06:05:20;;;;;;;0.10;0.10;;;;;;;8.08;100.00;101394.06;5048154;28;20247;-76
2023/04/08 06:07:47;;;;;;;0.20;0.20;;;;;;;8.10;100.00;101401.16;5066339;28;20269;-75
2023/04/08 06:10:15;;;;;;;0.20;0.20;;;;;;;8.09;100.00;101407.28;5066879;28;20229;-75
2023/04/08 06:12:42;;;;;;;0.20;0.20;;;;;;;8.15;100.00;101411.88;5070266;28;20253;-75
2023/04/08 06:15:10;;;;;;;0.28;0.28;;;;;;;8.15;100.00;101418.03;5065239;28;20261;-76
2023/04/08 06:17:37;;;;;;;0.30;0.30;;;;;;;8.18;100.00;101425.16;5062604;28;20237;-75
2023/04/08 06:20:06;;;;;;;0.22;0.22;;;8.10;99.90;;;8.17;100.00;101434.78;5069808;28;20232;-76
2023/04/08 06:22:34;;;;;;;0.30;0.30;;;;;;;8.20;100.00;101436.63;5068054;28;20303;-76
2023/04/08 06:25:02;;;;;;;0.20;0.20;;;8.10;99.90;;;8.23;100.00;101447.28;5069405;28;20305;-76
2023/04/08 06:27:29;;;;;;;0.93;0.82;;;;;;;8.24;100.00;101442.06;5066509;28;20698;-75
2023/04/08 06:29:56;;;;;;;0.30;0.30;;;;;;;8.28;100.00;101443.97;5062437;28;20681;-77
2023/04/08 06:32:24;;;;;;;0.17;0.17;;;;;;;8.31;100.00;101446.69;5066195;28;20318;-78
2023/04/08 06:34:51;;;;;;;0.20;0.20;;;;;;;8.37;100.00;101456.59;5063773;28;20245;-75
2023/04/08 06:37:19;;;;;;;0.10;0.10;;;;;;;8.42;100.00;101457.63;5051992;28;20675;-75
2023/04/08 06:39:47;;;;;;;0.10;0.10;;;;;;;8.37;100.00;101456.59;5069719;28;20336;-75
2023/04/08 06:42:14;;;;;;;0.10;0.10;;;;;;;8.34;100.00;101448.56;5049704;28;20303;-76
2023/04/08 06:44:41;;;;;;;0.10;0.10;;;;;;;8.29;100.00;101447.50;5068105;28;20234;-77
2023/04/08 06:47:09;;;;;;;0.20;0.20;;;;;;;8.28;100.00;101443.06;5068617;28;20264;-75
2023/04/08 06:49:36;;;;;;;0.82;0.82;;;;;;;8.28;100.00;101440.44;5047709;28;20319;-76
2023/04/08 06:52:05;;;;;;;0.20;0.20;;;;;;;8.30;100.00;101441.38;5074395;28;20767;-75
2023/04/08 06:54:33;;;;;;;0.10;0.10;;;;;;;8.35;100.00;101445.09;5071385;28;20234;-75
2023/04/08 06:57:00;;;;;;;0.20;0.20;;;;;;;8.43;100.00;101448.00;5053506;28;20286;-76
2023/04/08 06:59:29;;;;;;;0.55;0.55;;;;;;;8.54;100.00;101457.16;5071349;28;20241;-76
2023/04/08 07:01:56;;;;;;;0.20;0.20;;;;;;;8.54;100.00;101454.53;5067080;28;20336;-75
2023/04/08 07:04:24;;;;;;;0.20;0.20;;;;;;;8.51;100.00;101452.69;5046636;28;20671;-75
2023/04/08 07:06:51;;;;;;;0.10;0.10;;;8.20;99.90;;;8.48;100.00;101439.41;5071120;28;20690;-75
2023/04/08 07:09:19;;;;;;;0.10;0.10;;;;;;;8.42;100.00;101428.63;5068761;28;20290;-75
2023/04/08 07:11:46;;;;;;;0.52;0.52;;;8.40;99.90;;;8.47;100.00;101413.88;5062060;28;20291;-75
2023/04/08 07:14:14;;;;;;;0.10;0.10;;;;;;;8.55;100.00;101407.13;5070269;28;20342;-76
2023/04/08 07:16:41;;;;;;;0.20;0.20;;;;;;;8.78;100.00;101415.75;5071049;28;20241;-76
2023/04/08 07:19:08;;;;;;;0.20;0.20;;;;;;;8.89;100.00;101406.44;5070121;28;20248;-75
2023/04/08 07:21:36;;;;;;;0.45;0.45;;;;;;;8.96;100.00;101389.06;5070378;28;20272;-76
2023/04/08 07:24:03;;;;;;;0.10;0.10;;;;;;;9.01;100.00;101391.84;5065819;28;20285;-75
2023/04/08 07:26:31;;;;;;;0.20;0.20;;;;;;;9.13;100.00;101374.66;5058074;28;20253;-76
2023/04/08 07:28:58;;;;;;;0.20;0.20;;;;;;;9.24;100.00;101360.03;5061778;28;20234;-76
2023/04/08 07:31:26;;;;;;;0.10;0.10;;;;;;;9.33;100.00;101351.50;5029805;28;20287;-74
2023/04/08 07:33:54;;;;;;;0.20;0.20;;;;;;;9.38;100.00;101343.69;5062158;28;20249;-75
2023/04/08 07:36:21;;;;;;;0.10;0.10;;;;;;;9.24;100.00;101317.81;5048360;28;20230;-75
2023/04/08 07:38:49;;;;;;;0.20;0.20;;;;;;;9.30;100.00;101312.69;5060612;28;20233;-75
2023/04/08 07:41:16;;;;;;;0.10;0.10;;;;;;;9.50;100.00;101310.63;5068531;28;20233;-75
2023/04/08 07:43:44;;;;;;;0.10;0.10;;;;;;;9.52;100.00;101302.72;5051858;28;20681;-75
2023/04/08 07:46:12;;;;;;;0.20;0.20;;;;;;;9.42;100.00;101280.47;5068185;28;20237;-75
2023/04/08 07:48:39;;;;;;;0.10;0.10;;;;;;;9.63;100.00;101283.69;5070649;28;20609;-75
2023/04/08 07:51:08;;;;;;;0.10;0.10;;;9.60;99.90;;;9.69;100.00;101274.13;5069454;28;20242;-76
2023/04/08 07:53:39;;;;;;;0.63;0.43;;;9.70;99.90;;;9.82;100.00;101263.03;5068126;28;20239;-75
2023/04/08 07:56:14;;;;;;;0.52;0.52;;;9.80;99.90;;;9.80;100.00;101255.06;5069245;28;20294;-74
2023/04/08 07:58:42;;;;;;;0.10;0.10;;;;;;;9.75;100.00;101247.88;5058889;28;20284;-75
2023/04/08 08:01:21;;;;;;;0.30;0.30;;;9.70;99.90;;;9.68;100.00;101238.91;5057442;28;20234;-75
2023/04/08 08:03:50;;;;;;;0.20;0.20;;;9.60;99.90;;;9.65;100.00;101230.91;5060750;28;20225;-75
2023/04/08 08:06:19;;;;;;;0.40;0.40;;;;;;;9.60;100.00;101221.97;5058850;28;20306;-74
2023/04/08 08:08:47;;;;;;;0.20;0.20;;;;;;;9.67;100.00;101217.72;5059879;28;20320;-74
2023/04/08 08:11:15;;;;;;;0.50;0.50;;;;;;;10.01;100.00;101228.28;5057652;28;20278;-74
2023/04/08 08:13:43;;;;;;;0.20;0.20;;;;;;;10.22;100.00;101223.50;5042820;28;20293;-75
2023/04/08 08:16:11;;;;;;;0.10;0.10;;;;;;;10.29;100.00;101215.72;5032876;28;20301;-74
2023/04/08 08:18:40;;;;;;;1.17;1.17;;;;;;;10.45;100.00;101207.31;5054817;28;20628;-75
2023/04/08 08:21:08;;;;;;;0.10;0.10;;;;;;;10.39;100.00;101186.88;5060478;28;20245;-75
2023/04/08 08:23:36;;;;;;;0.10;0.10;;;;;;;10.26;100.00;101172.50;5068624;28;20264;-75
2023/04/08 08:26:08;;;;;;;1.23;0.63;;;10.20;99.90;;;10.16;100.00;101178.41;5068697;28;20257;-75
2023/04/08 08:28:37;;;;;;;0.10;0.10;;;;;;;10.22;100.00;101191.78;5064830;28;20294;-74
2023/04/08 08:31:05;;;;;;;0.20;0.20;;;;;;;10.05;100.00;101194.88;5062763;28;20245;-74
2023/04/08 08:33:32;;;;;;;0.45;0.40;;;;;;;10.16;100.00;101196.03;5051542;28;20230;-74
2023/04/08 08:36:00;;;;;;;0.68;0.68;;;;;;;10.09;100.00;101191.44;5051074;28;20234;-74
2023/04/08 08:38:28;;;;;;;0.30;0.30;;;;;;;10.12;100.00;101202.09;5067191;28;20234;-74
2023/04/08 08:40:57;;;;;;;0.10;0.10;;;10.40;99.90;;;10.13;100.00;101190.66;5044085;28;20234;-75
2023/04/08 08:43:26;;;;;;;0.50;0.50;;;10.20;99.90;;;10.08;100.00;101179.09;5065503;28;20257;-75
2023/04/08 08:45:53;;;;;;;0.10;0.10;;;;;;;10.25;100.00;101196.25;5066207;28;20302;-75
2023/04/08 08:48:21;;;;;;;1.63;0.85;;;;;;;10.30;100.00;101196.34;5058344;28;20288;-76
2023/04/08 08:50:48;;;;;;;0.47;0.47;;;;;;;10.57;100.00;101207.56;5023968;28;20301;-75
2023/04/08 08:53:15;;;;;;;0.43;0.43;;;10.40;99.90;;;10.56;100.00;101193.44;5043239;28;20276;-75
2023/04/08 08:55:43;;;;;;;311.77;140.77;;;;;;;10.80;100.00;101200.09;5058731;28;20241;-74
2023/04/08 08:58:30;;;;;;;306.30;131.20;;;10.40;99.90;;;10.59;100.00;101179.41;5055886;28;20234;-74
2023/04/08 09:00:58;;;;;;;313.80;126.27;;;;;;;10.75;100.00;101183.25;5067979;28;20238;-74
2023/04/08 09:03:27;;;;;;;305.03;144.73;;;10.80;99.90;;;11.06;100.00;101190.03;5060614;28;20237;-74
2023/04/08 09:06:00;;;;;;;300.00;126.10;;;11.10;99.90;;;11.24;100.00;101177.13;5069120;28;20343;-74
2023/04/08 09:08:28;;;;;;;305.70;126.47;;;;;;;11.32;100.00;101162.28;5059760;28;20291;-75
2023/04/08 09:11:13;;;;;;;304.03;128.27;;;11.40;99.90;;;11.40;100.00;101142.13;5068042;28;20234;-75
2023/04/08 09:13:42;;;;;;;296.93;129.10;;;;;;;11.78;100.00;101149.84;5062273;28;20234;-74
2023/04/08 09:16:15;;;;;;;333.43;143.93;;;11.50;99.90;;;11.67;100.00;101122.22;5068699;28;20291;-74
2023/04/08 09:18:44;;;;;;;343.23;141.63;;;;;;;11.87;100.00;101123.50;5084779;22;20233;-80
2023/04/08 09:21:13;;;;;;;342.57;146.70;;;11.80;99.90;;;11.88;100.00;101111.13;5068411;28;20252;-78
2023/04/08 09:23:51;;;;;;;352.53;160.77;;;12.10;99.90;;;12.35;100.00;101125.94;5055357;28;20241;-77
2023/04/08 09:26:23;;;;;;;340.20;151.23;;;12.20;99.90;;;12.22;100.00;101065.63;5067920;28;20645;-77
2023/04/08 09:29:01;;;;;;;347.13;163.70;;;12.20;99.90;;;12.38;100.00;101058.75;5088261;28;20290;-75
2023/04/08 09:31:41;;;;;;;333.67;153.50;;;;;;;12.02;100.00;101000.88;5072185;28;20240;-76
2023/04/08 09:34:14;;;;;;;340.47;156.53;;;12.00;99.90;;;11.95;100.00;100983.13;5078270;28;20597;-75
2023/04/08 09:36:51;;;;;;;362.53;171.10;;;12.00;99.90;;;12.06;100.00;100990.31;5071751;28;20297;-82
2023/04/08 09:39:19;;;;;;;345.37;162.83;;;;;;;12.17;100.00;100998.41;5082614;28;20229;-79
2023/04/08 09:41:51;;;;;;;345.20;169.97;;;12.30;99.90;;;12.31;100.00;100986.19;5082963;28;20263;-78
2023/04/08 09:44:28;;;;;;;349.37;176.10;;;12.20;99.90;;;12.18;100.00;100965.72;5089301;28;20229;-78
2023/04/08 09:47:14;;;;;;;340.97;194.07;;;12.10;99.90;;;12.02;100.00;100939.91;5088152;28;20233;-75
2023/04/08 09:49:57;;;;;;;366.87;211.23;;;12.10;99.90;;;12.24;100.00;100960.47;5064696;28;20233;-77
2023/04/08 09:52:33;;;;;;;355.93;209.77;;;12.10;99.90;;;12.10;100.00;100930.28;5068369;28;20229;-77
2023/04/08 09:55:16;;;;;;;351.03;208.00;;;12.30;99.90;;;12.06;100.00;100916.09;5088586;28;20232;-78
2023/04/08 09:58:01;;;;;;;361.40;226.93;;;12.10;99.90;;;12.23;100.00;100932.19;5084760;28;20294;-79
2023/04/08 10:00:34;;;;;;;362.50;227.70;;;12.50;99.90;;;12.73;100.00;100974.22;5073425;28;20315;-79
2023/04/08 10:03:37;;;;;;;370.87;240.90;;;12.50;99.90;;;12.67;100.00;100955.59;5074330;28;20233;-78
2023/04/08 10:06:07;;;;;;;363.40;235.53;;;12.10;99.90;;;12.14;100.00;100871.09;5086540;28;20281;-78
2023/04/08 10:08:35;;;;;;;360.30;249.30;;;;;;;12.02;100.00;100833.88;5075297;28;20293;-80
2023/04/08 10:11:03;;;;;;;367.90;260.83;;;;;;;12.05;100.00;100828.59;5069708;28;20274;-79
2023/04/08 10:13:31;;;;;;;375.03;281.67;;;;;;;12.02;100.00;100805.59;5055114;28;20236;-83
2023/04/08 10:16:24;;;;;;;365.60;249.17;;;11.70;99.90;;;11.87;100.00;100770.13;5068984;28;20316;-77
2023/04/08 10:18:56;;;;;;;368.00;251.10;;;11.90;99.90;;;12.00;100.00;100764.06;5091566;28;20390;-85
2023/04/08 10:21:47;;;;;;;373.37;253.30;;;12.00;99.90;;;12.21;100.00;100790.75;5084905;28;20228;-79
2023/04/08 10:24:14;;;;;;;374.60;271.27;;;;;;;12.63;100.00;100802.53;5090584;28;20231;-81
2023/04/08 10:26:45;;;;;;;389.43;322.90;;;12.20;99.90;;;12.32;100.00;100765.19;5088923;28;20244;-80
2023/04/08 10:29:18;;;;;;;370.27;294.77;;;12.50;99.90;;;12.39;100.00;100774.97;5082516;28;20308;-79
2023/04/08 10:31:50;;;;;;;372.60;292.83;;;;;;;12.76;100.00;100777.84;5080805;28;20238;-80
2023/04/08 10:34:19;;;;;;;423.00;377.80;;;12.60;99.90;;;12.57;100.00;100710.53;5090965;28;20600;-79
2023/04/08 10:36:47;;;;;;;400.97;357.67;;;;;;;13.07;100.00;100747.06;5091141;28;20240;-79
2023/04/08 10:39:15;;;;;;;427.07;382.93;;;;;;;13.37;100.00;100776.41;5079724;28;20230;-80
2023/04/08 10:41:47;;;;;;;436.33;392.70;;;12.90;99.90;;;12.77;100.00;100662.84;5085509;28;20301;-82
2023/04/08 10:44:22;;;;;;;444.40;399.73;;;12.70;99.90;;;12.71;100.00;100658.41;5071059;28;20256;-78
2023/04/08 10:46:52;;;;;;;463.80;419.47;;;12.80;99.90;;;12.86;100.00;100673.50;5089893;28;20285;-79
2023/04/08 10:49:20;;;;;;;492.03;445.47;;;;;;;12.88;100.00;100681.47;5084432;28;20308;-85
2023/04/08 10:51:48;;;;;;;451.60;406.97;;;;;;;12.42;100.00;100609.66;5091778;28;20229;-80
2023/04/08 10:54:17;;;;;;;482.23;436.83;;;12.70;99.90;;;12.75;100.00;100661.97;5087995;28;20252;-82
2023/04/08 10:56:52;;;;;;;500.63;454.63;;;12.60;99.90;;;12.48;100.00;100638.84;5080265;28;20241;-80
2023/04/08 10:59:33;;;;;;;523.93;476.93;;;12.60;99.90;;;12.62;100.00;100671.63;5089251;28;20241;-81
2023/04/08 11:02:01;;;;;;;545.20;498.83;;;;;;;12.74;100.00;100697.34;5068170;28;20308;-80